sensor_id;sensor_type;location;lat;lon;timestamp;pressure;altitude;pressure_sealevel;temperature;humidity
59411;BME280;45215;32.610;-115.482;2022-07-25T00:02:04;100587.22;;;21.84;40.73
59411;BME280;45215;32.610;-115.482;2022-07-25T00:04:30;100589.22;;;21.61;38.57
59411;BME280;45215;32.610;-115.482;2022-07-25T00:06:56;100587.13;;;21.42;38.68
59411;BME280;45215;32.610;-115.482;2022-07-25T00:09:22;100582.75;;;21.77;46.99
59411;BME280;45215;32.610;-115.482;2022-07-25T00:11:47;100576.69;;;21.90;41.50
59411;BME280;45215;32.610;-115.482;2022-07-25T00:14:13;100570.16;;;21.63;38.33
59411;BME280;45215;32.610;-115.482;2022-07-25T00:16:39;100571.13;;;21.40;38.08
59411;BME280;45215;32.610;-115.482;2022-07-25T00:19:05;100571.13;;;21.76;46.61
59411;BME280;45215;32.610;-115.482;2022-07-25T00:21:31;100567.38;;;21.92;41.10
59411;BME280;45215;32.610;-115.482;2022-07-25T00:23:57;100559.41;;;21.69;38.04
59411;BME280;45215;32.610;-115.482;2022-07-25T00:26:23;100564.16;;;21.46;37.54
59411;BME280;45215;32.610;-115.482;2022-07-25T00:28:48;100562.38;;;21.74;46.16
59411;BME280;45215;32.610;-115.482;2022-07-25T00:31:14;100552.47;;;21.96;41.78
59411;BME280;45215;32.610;-115.482;2022-07-25T00:33:40;100543.88;;;21.71;38.56
59411;BME280;45215;32.610;-115.482;2022-07-25T00:36:06;100549.00;;;21.45;37.74
59411;BME280;45215;32.610;-115.482;2022-07-25T00:38:32;100536.66;;;21.78;46.25
59411;BME280;45215;32.610;-115.482;2022-07-25T00:40:58;100541.84;;;21.95;41.20
59411;BME280;45215;32.610;-115.482;2022-07-25T00:43:24;100532.63;;;21.68;38.09
59411;BME280;45215;32.610;-115.482;2022-07-25T00:45:50;100538.44;;;21.50;38.88
59411;BME280;45215;32.610;-115.482;2022-07-25T00:48:15;100541.56;;;21.90;46.06
59411;BME280;45215;32.610;-115.482;2022-07-25T00:50:41;100534.38;;;21.97;40.59
59411;BME280;45215;32.610;-115.482;2022-07-25T00:53:07;100532.41;;;21.69;37.86
59411;BME280;45215;32.610;-115.482;2022-07-25T00:55:33;100531.91;;;21.59;41.63
59411;BME280;45215;32.610;-115.482;2022-07-25T00:57:59;100538.34;;;22.01;45.35
59411;BME280;45215;32.610;-115.482;2022-07-25T01:00:24;100534.97;;;21.92;39.60
59411;BME280;45215;32.610;-115.482;2022-07-25T01:02:50;100531.97;;;21.66;37.57
59411;BME280;45215;32.610;-115.482;2022-07-25T01:05:16;100539.03;;;21.45;37.56
59411;BME280;45215;32.610;-115.482;2022-07-25T01:07:42;100539.84;;;21.82;45.10
59411;BME280;45215;32.610;-115.482;2022-07-25T01:10:08;100543.06;;;21.92;40.41
59411;BME280;45215;32.610;-115.482;2022-07-25T01:12:43;100549.84;;;21.67;37.62
59411;BME280;45215;32.610;-115.482;2022-07-25T01:15:09;100547.19;;;21.52;40.26
59411;BME280;45215;32.610;-115.482;2022-07-25T01:17:35;100558.44;;;21.92;45.62
59411;BME280;45215;32.610;-115.482;2022-07-25T01:20:00;100561.31;;;21.90;39.99
59411;BME280;45215;32.610;-115.482;2022-07-25T01:22:26;100563.72;;;21.64;37.53
59411;BME280;45215;32.610;-115.482;2022-07-25T01:24:52;100575.94;;;21.59;42.27
59411;BME280;45215;32.610;-115.482;2022-07-25T01:27:18;100576.00;;;22.02;44.69
59411;BME280;45215;32.610;-115.482;2022-07-25T01:29:44;100572.97;;;21.91;39.39
59411;BME280;45215;32.610;-115.482;2022-07-25T01:32:10;100581.34;;;21.59;37.34
59411;BME280;45215;32.610;-115.482;2022-07-25T01:34:36;100580.06;;;21.41;39.14
59411;BME280;45215;32.610;-115.482;2022-07-25T01:37:02;100584.69;;;21.83;46.01
59411;BME280;45215;32.610;-115.482;2022-07-25T01:39:28;100585.19;;;21.87;40.16
59411;BME280;45215;32.610;-115.482;2022-07-25T01:41:53;100581.50;;;21.58;37.55
59411;BME280;45215;32.610;-115.482;2022-07-25T01:44:19;100592.03;;;21.53;42.16
59411;BME280;45215;32.610;-115.482;2022-07-25T01:46:45;100592.13;;;21.96;45.06
59411;BME280;45215;32.610;-115.482;2022-07-25T01:49:11;100585.91;;;21.80;39.56
59411;BME280;45215;32.610;-115.482;2022-07-25T01:51:37;100593.25;;;21.50;37.22
59411;BME280;45215;32.610;-115.482;2022-07-25T01:54:02;100590.91;;;21.62;45.45
59411;BME280;45215;32.610;-115.482;2022-07-25T01:56:28;100596.91;;;21.94;43.23
59411;BME280;45215;32.610;-115.482;2022-07-25T01:58:54;100602.59;;;21.69;38.67
59411;BME280;45215;32.610;-115.482;2022-07-25T02:01:20;100611.78;;;21.38;36.81
59411;BME280;45215;32.610;-115.482;2022-07-25T02:03:46;100609.81;;;21.47;44.50
59411;BME280;45215;32.610;-115.482;2022-07-25T02:06:11;100607.34;;;21.82;42.87
59411;BME280;45215;32.610;-115.482;2022-07-25T02:08:37;100620.78;;;21.60;38.44
59411;BME280;45215;32.610;-115.482;2022-07-25T02:11:03;100622.56;;;21.38;41.54
59411;BME280;45215;32.610;-115.482;2022-07-25T02:13:29;100619.16;;;21.81;47.05
59411;BME280;45215;32.610;-115.482;2022-07-25T02:15:54;100622.44;;;21.76;40.43
59411;BME280;45215;32.610;-115.482;2022-07-25T02:18:20;100629.47;;;21.41;37.54
59411;BME280;45215;32.610;-115.482;2022-07-25T02:20:46;100635.53;;;21.28;42.68
59411;BME280;45215;32.610;-115.482;2022-07-25T02:23:12;100646.25;;;21.73;45.55
59411;BME280;45215;32.610;-115.482;2022-07-25T02:25:38;100645.91;;;21.61;39.51
59411;BME280;45215;32.610;-115.482;2022-07-25T02:28:04;100645.66;;;21.26;38.06
59411;BME280;45215;32.610;-115.482;2022-07-25T02:30:29;100651.03;;;21.56;46.12
59411;BME280;45215;32.610;-115.482;2022-07-25T02:32:55;100643.19;;;21.76;41.66
59411;BME280;45215;32.610;-115.482;2022-07-25T02:35:21;100641.00;;;21.50;38.19
59411;BME280;45215;32.610;-115.482;2022-07-25T02:37:47;100640.44;;;21.25;39.61
59411;BME280;45215;32.610;-115.482;2022-07-25T02:40:13;100654.50;;;21.65;46.41
59411;BME280;45215;32.610;-115.482;2022-07-25T02:42:38;100649.72;;;21.67;40.48
59411;BME280;45215;32.610;-115.482;2022-07-25T02:45:04;100655.34;;;21.35;37.88
59411;BME280;45215;32.610;-115.482;2022-07-25T02:47:30;100654.25;;;21.45;44.89
59411;BME280;45215;32.610;-115.482;2022-07-25T02:49:56;100656.69;;;21.76;42.73
59411;BME280;45215;32.610;-115.482;2022-07-25T02:52:22;100664.53;;;21.56;38.69
59411;BME280;45215;32.610;-115.482;2022-07-25T02:54:50;100667.53;;;21.31;37.04
59411;BME280;45215;32.610;-115.482;2022-07-25T02:57:16;100679.91;;;21.41;43.34
59411;BME280;45215;32.610;-115.482;2022-07-25T02:59:42;100678.75;;;21.79;43.61
59411;BME280;45215;32.610;-115.482;2022-07-25T03:02:08;100680.09;;;21.54;38.54
59411;BME280;45215;32.610;-115.482;2022-07-25T03:04:34;100686.31;;;21.25;39.89
59411;BME280;45215;32.610;-115.482;2022-07-25T03:06:59;100684.38;;;21.63;47.06
59411;BME280;45215;32.610;-115.482;2022-07-25T03:09:25;100683.16;;;21.66;40.48
59411;BME280;45215;32.610;-115.482;2022-07-25T03:11:51;100687.63;;;21.29;38.64
59411;BME280;45215;32.610;-115.482;2022-07-25T03:14:17;100690.50;;;21.27;45.07
59411;BME280;45215;32.610;-115.482;2022-07-25T03:16:42;100698.59;;;21.72;46.09
59411;BME280;45215;32.610;-115.482;2022-07-25T03:19:08;100700.84;;;21.53;41.85
59411;BME280;45215;32.610;-115.482;2022-07-25T03:21:36;100697.69;;;21.20;39.95
59411;BME280;45215;32.610;-115.482;2022-07-25T03:24:02;100709.28;;;21.06;43.28
59411;BME280;45215;32.610;-115.482;2022-07-25T03:26:27;100717.50;;;21.57;48.99
59411;BME280;45215;32.610;-115.482;2022-07-25T03:28:53;100717.06;;;21.53;41.63
59411;BME280;45215;32.610;-115.482;2022-07-25T03:31:19;100710.13;;;21.21;39.30
59411;BME280;45215;32.610;-115.482;2022-07-25T03:33:45;100723.84;;;21.34;46.57
59411;BME280;45215;32.610;-115.482;2022-07-25T03:36:11;100721.41;;;21.69;44.72
59411;BME280;45215;32.610;-115.482;2022-07-25T03:38:36;100733.50;;;21.44;40.26
59411;BME280;45215;32.610;-115.482;2022-07-25T03:41:04;100734.25;;;21.23;42.33
59411;BME280;45215;32.610;-115.482;2022-07-25T03:43:30;100743.59;;;21.65;47.86
59411;BME280;45215;32.610;-115.482;2022-07-25T03:45:55;100745.34;;;21.57;40.58
59411;BME280;45215;32.610;-115.482;2022-07-25T03:48:21;100740.75;;;21.28;39.94
59411;BME280;45215;32.610;-115.482;2022-07-25T03:50:47;100754.94;;;21.60;48.10
59411;BME280;45215;32.610;-115.482;2022-07-25T03:53:13;100766.25;;;21.70;41.87
59411;BME280;45215;32.610;-115.482;2022-07-25T03:55:38;100757.25;;;21.33;39.45
59411;BME280;45215;32.610;-115.482;2022-07-25T03:58:04;100764.84;;;21.30;43.98
59411;BME280;45215;32.610;-115.482;2022-07-25T04:00:31;100763.56;;;21.70;45.17
59411;BME280;45215;32.610;-115.482;2022-07-25T04:02:57;100766.34;;;21.47;40.44
59411;BME280;45215;32.610;-115.482;2022-07-25T04:05:23;100765.84;;;21.14;39.26
59411;BME280;45215;32.610;-115.482;2022-07-25T04:07:49;100763.94;;;21.00;42.70
59411;BME280;45215;32.610;-115.482;2022-07-25T04:10:14;100780.50;;;21.49;48.87
59411;BME280;45215;32.610;-115.482;2022-07-25T04:12:40;100778.72;;;21.42;42.51
59411;BME280;45215;32.610;-115.482;2022-07-25T04:15:06;100780.72;;;21.10;40.50
59411;BME280;45215;32.610;-115.482;2022-07-25T04:17:32;100787.56;;;21.35;48.31
59411;BME280;45215;32.610;-115.482;2022-07-25T04:19:58;100794.38;;;21.61;44.88
59411;BME280;45215;32.610;-115.482;2022-07-25T04:22:24;100794.34;;;21.31;41.00
59411;BME280;45215;32.610;-115.482;2022-07-25T04:24:50;100799.91;;;21.15;44.39
59411;BME280;45215;32.610;-115.482;2022-07-25T04:27:15;100807.41;;;21.57;48.11
59411;BME280;45215;32.610;-115.482;2022-07-25T04:29:41;100804.13;;;21.47;41.41
59411;BME280;45215;32.610;-115.482;2022-07-25T04:32:07;100812.84;;;21.20;41.11
59411;BME280;45215;32.610;-115.482;2022-07-25T04:34:33;100817.56;;;21.55;48.94
59411;BME280;45215;32.610;-115.482;2022-07-25T04:36:58;100817.94;;;21.67;43.14
59411;BME280;45215;32.610;-115.482;2022-07-25T04:39:24;100822.16;;;21.32;39.70
59411;BME280;45215;32.610;-115.482;2022-07-25T04:41:50;100829.66;;;21.45;47.73
59411;BME280;45215;32.610;-115.482;2022-07-25T04:44:16;100824.28;;;21.74;45.35
59411;BME280;45215;32.610;-115.482;2022-07-25T04:46:41;100823.22;;;21.46;40.45
59411;BME280;45215;32.610;-115.482;2022-07-25T04:49:07;100819.84;;;21.29;43.52
59411;BME280;45215;32.610;-115.482;2022-07-25T04:51:33;100827.53;;;21.70;49.02
59411;BME280;45215;32.610;-115.482;2022-07-25T04:53:59;100835.06;;;21.59;41.90
59411;BME280;45215;32.610;-115.482;2022-07-25T04:56:24;100831.16;;;21.24;41.47
59411;BME280;45215;32.610;-115.482;2022-07-25T04:58:50;100839.66;;;21.59;48.41
59411;BME280;45215;32.610;-115.482;2022-07-25T05:01:16;100838.63;;;21.75;43.61
59411;BME280;45215;32.610;-115.482;2022-07-25T05:03:42;100840.16;;;21.39;40.42
59411;BME280;45215;32.610;-115.482;2022-07-25T05:06:08;100841.75;;;21.49;47.97
59411;BME280;45215;32.610;-115.482;2022-07-25T05:08:34;100840.78;;;21.79;45.95
59411;BME280;45215;32.610;-115.482;2022-07-25T05:10:59;100834.03;;;21.46;40.99
59411;BME280;45215;32.610;-115.482;2022-07-25T05:13:25;100838.97;;;21.42;48.01
59411;BME280;45215;32.610;-115.482;2022-07-25T05:15:51;100836.66;;;21.83;47.01
59411;BME280;45215;32.610;-115.482;2022-07-25T05:18:17;100836.56;;;21.62;43.13
59411;BME280;45215;32.610;-115.482;2022-07-25T05:20:43;100833.06;;;21.38;41.71
59411;BME280;45215;32.610;-115.482;2022-07-25T05:23:08;100832.88;;;21.25;45.17
59411;BME280;45215;32.610;-115.482;2022-07-25T05:25:34;100839.94;;;21.79;52.19
59411;BME280;45215;32.610;-115.482;2022-07-25T05:28:00;100836.38;;;21.78;46.82
59411;BME280;45215;32.610;-115.482;2022-07-25T05:30:27;100830.06;;;21.56;45.30
59411;BME280;45215;32.610;-115.482;2022-07-25T05:32:52;100826.47;;;21.41;44.82
59411;BME280;45215;32.610;-115.482;2022-07-25T05:35:18;100836.59;;;21.77;52.60
59411;BME280;45215;32.610;-115.482;2022-07-25T05:37:44;100838.03;;;21.88;46.48
59411;BME280;45215;32.610;-115.482;2022-07-25T05:40:10;100825.34;;;21.50;43.11
59411;BME280;45215;32.610;-115.482;2022-07-25T05:42:36;100826.13;;;21.21;41.69
59411;BME280;45215;32.610;-115.482;2022-07-25T05:45:02;100832.22;;;21.38;49.76
59411;BME280;45215;32.610;-115.482;2022-07-25T05:47:28;100825.19;;;21.67;46.53
59411;BME280;45215;32.610;-115.482;2022-07-25T05:49:53;100827.88;;;21.37;42.48
59411;BME280;45215;32.610;-115.482;2022-07-25T05:52:19;100827.13;;;21.05;40.98
59411;BME280;45215;32.610;-115.482;2022-07-25T05:54:45;100835.72;;;21.01;45.45
59411;BME280;45215;32.610;-115.482;2022-07-25T05:57:11;100833.81;;;21.47;47.41
59411;BME280;45215;32.610;-115.482;2022-07-25T05:59:36;100821.72;;;21.28;41.46
59411;BME280;45215;32.610;-115.482;2022-07-25T06:02:02;100828.00;;;20.98;39.73
59411;BME280;45215;32.610;-115.482;2022-07-25T06:04:28;100822.81;;;21.19;47.79
59411;BME280;45215;32.610;-115.482;2022-07-25T06:06:54;100826.84;;;21.53;45.00
59411;BME280;45215;32.610;-115.482;2022-07-25T06:09:20;100832.19;;;21.23;40.50
59411;BME280;45215;32.610;-115.482;2022-07-25T06:11:47;100828.19;;;21.19;46.30
59411;BME280;45215;32.610;-115.482;2022-07-25T06:14:12;100817.69;;;21.62;48.67
59411;BME280;45215;32.610;-115.482;2022-07-25T06:16:39;100819.69;;;21.45;41.64
59411;BME280;45215;32.610;-115.482;2022-07-25T06:19:05;100820.56;;;21.23;45.95
59411;BME280;45215;32.610;-115.482;2022-07-25T06:21:30;100813.78;;;21.65;50.48
59411;BME280;45215;32.610;-115.482;2022-07-25T06:23:56;100817.09;;;21.52;43.11
59411;BME280;45215;32.610;-115.482;2022-07-25T06:26:22;100816.38;;;21.20;44.15
59411;BME280;45215;32.610;-115.482;2022-07-25T06:28:49;100806.59;;;21.57;50.66
59411;BME280;45215;32.610;-115.482;2022-07-25T06:31:15;100804.34;;;21.60;43.79
59411;BME280;45215;32.610;-115.482;2022-07-25T06:33:41;100802.53;;;21.23;42.55
59411;BME280;45215;32.610;-115.482;2022-07-25T06:36:07;100810.03;;;21.51;49.75
59411;BME280;45215;32.610;-115.482;2022-07-25T06:38:33;100812.16;;;21.70;45.66
59411;BME280;45215;32.610;-115.482;2022-07-25T06:40:59;100808.31;;;21.35;41.84
59411;BME280;45215;32.610;-115.482;2022-07-25T06:43:24;100811.53;;;21.53;49.84
59411;BME280;45215;32.610;-115.482;2022-07-25T06:45:50;100819.81;;;21.81;47.78
59411;BME280;45215;32.610;-115.482;2022-07-25T06:48:16;100814.94;;;21.47;42.44
59411;BME280;45215;32.610;-115.482;2022-07-25T06:50:42;100809.88;;;21.29;47.53
59411;BME280;45215;32.610;-115.482;2022-07-25T06:53:08;100817.56;;;21.70;51.46
59411;BME280;45215;32.610;-115.482;2022-07-25T06:55:34;100815.50;;;21.57;43.79
59411;BME280;45215;32.610;-115.482;2022-07-25T06:58:00;100816.00;;;21.23;45.44
59411;BME280;45215;32.610;-115.482;2022-07-25T07:00:25;100821.38;;;21.61;52.31
59411;BME280;45215;32.610;-115.482;2022-07-25T07:02:53;100828.09;;;21.65;45.09
59411;BME280;45215;32.610;-115.482;2022-07-25T07:05:23;100815.34;;;21.21;44.66
59411;BME280;45215;32.610;-115.482;2022-07-25T07:07:49;100825.03;;;21.53;51.58
59411;BME280;45215;32.610;-115.482;2022-07-25T07:10:15;100821.59;;;21.74;47.22
59411;BME280;45215;32.610;-115.482;2022-07-25T07:12:41;100821.81;;;21.35;42.86
59411;BME280;45215;32.610;-115.482;2022-07-25T07:15:07;100822.50;;;21.52;51.17
59411;BME280;45215;32.610;-115.482;2022-07-25T07:17:33;100819.53;;;21.76;47.64
59411;BME280;45215;32.610;-115.482;2022-07-25T07:19:59;100810.09;;;21.43;42.66
59411;BME280;45215;32.610;-115.482;2022-07-25T07:22:24;100814.09;;;21.47;50.04
59411;BME280;45215;32.610;-115.482;2022-07-25T07:24:50;100816.28;;;21.81;50.09
59411;BME280;45215;32.610;-115.482;2022-07-25T07:27:16;100810.84;;;21.51;43.08
59411;BME280;45215;32.610;-115.482;2022-07-25T07:29:41;100807.41;;;21.43;49.45
59411;BME280;45215;32.610;-115.482;2022-07-25T07:32:07;100808.38;;;21.79;51.64
59411;BME280;45215;32.610;-115.482;2022-07-25T07:34:33;100794.75;;;21.58;43.52
59411;BME280;45215;32.610;-115.482;2022-07-25T07:36:59;100796.97;;;21.39;48.06
59411;BME280;45215;32.610;-115.482;2022-07-25T07:39:25;100807.06;;;21.75;52.26
59411;BME280;45215;32.610;-115.482;2022-07-25T07:41:50;100807.34;;;21.66;44.90
59411;BME280;45215;32.610;-115.482;2022-07-25T07:44:16;100802.09;;;21.34;47.08
59411;BME280;45215;32.610;-115.482;2022-07-25T07:46:42;100803.22;;;21.70;52.23
59411;BME280;45215;32.610;-115.482;2022-07-25T07:49:08;100804.81;;;21.64;44.97
59411;BME280;45215;32.610;-115.482;2022-07-25T07:51:34;100812.22;;;21.32;46.84
59411;BME280;45215;32.610;-115.482;2022-07-25T07:53:59;100818.06;;;21.74;53.43
59411;BME280;45215;32.610;-115.482;2022-07-25T07:56:44;100816.84;;;21.76;45.85
59411;BME280;45215;32.610;-115.482;2022-07-25T07:59:10;100817.59;;;21.32;45.88
59411;BME280;45215;32.610;-115.482;2022-07-25T08:01:35;100816.63;;;21.63;52.21
59411;BME280;45215;32.610;-115.482;2022-07-25T08:04:01;100807.34;;;21.80;48.12
59411;BME280;45215;32.610;-115.482;2022-07-25T08:06:27;100807.41;;;21.43;45.24
59411;BME280;45215;32.610;-115.482;2022-07-25T08:08:53;100811.63;;;21.60;51.55
59411;BME280;45215;32.610;-115.482;2022-07-25T08:11:19;100811.00;;;21.88;49.75
59411;BME280;45215;32.610;-115.482;2022-07-25T08:13:45;100811.53;;;21.53;43.50
59411;BME280;45215;32.610;-115.482;2022-07-25T08:16:11;100815.88;;;21.54;51.21
59411;BME280;45215;32.610;-115.482;2022-07-25T08:18:38;100808.47;;;21.71;47.37
59411;BME280;45215;32.610;-115.482;2022-07-25T08:21:04;100800.94;;;21.29;43.15
59411;BME280;45215;32.610;-115.482;2022-07-25T08:23:33;100797.03;;;20.93;44.43
59411;BME280;45215;32.610;-115.482;2022-07-25T08:26:00;100805.16;;;21.31;51.64
59411;BME280;45215;32.610;-115.482;2022-07-25T08:28:26;100805.09;;;21.54;46.94
59411;BME280;45215;32.610;-115.482;2022-07-25T08:30:52;100795.53;;;21.14;43.34
59411;BME280;45215;32.610;-115.482;2022-07-25T08:33:18;100802.25;;;21.33;50.95
59411;BME280;45215;32.610;-115.482;2022-07-25T08:35:44;100808.63;;;21.70;50.41
59411;BME280;45215;32.610;-115.482;2022-07-25T08:38:10;100803.13;;;21.33;43.53
59411;BME280;45215;32.610;-115.482;2022-07-25T08:40:36;100801.41;;;21.32;50.55
59411;BME280;45215;32.610;-115.482;2022-07-25T08:43:02;100802.03;;;21.72;51.98
59411;BME280;45215;32.610;-115.482;2022-07-25T08:45:29;100795.22;;;21.47;44.08
59411;BME280;45215;32.610;-115.482;2022-07-25T08:47:55;100789.34;;;21.28;49.15
59411;BME280;45215;32.610;-115.482;2022-07-25T08:50:22;100799.03;;;21.67;53.22
59411;BME280;45215;32.610;-115.482;2022-07-25T08:52:48;100784.16;;;21.56;45.46
59411;BME280;45215;32.610;-115.482;2022-07-25T08:55:15;100787.53;;;21.21;47.19
59411;BME280;45215;32.610;-115.482;2022-07-25T08:57:44;100789.34;;;21.58;52.50
59411;BME280;45215;32.610;-115.482;2022-07-25T09:00:11;100782.84;;;21.67;46.63
59411;BME280;45215;32.610;-115.482;2022-07-25T09:02:37;100779.28;;;21.22;45.38
59411;BME280;45215;32.610;-115.482;2022-07-25T09:05:03;100788.44;;;21.51;52.20
59411;BME280;45215;32.610;-115.482;2022-07-25T09:09:56;100784.22;;;21.33;43.74
59411;BME280;45215;32.610;-115.482;2022-07-25T09:12:25;100794.09;;;21.41;51.32
59411;BME280;45215;32.610;-115.482;2022-07-25T09:14:51;100787.97;;;21.77;50.85
59411;BME280;45215;32.610;-115.482;2022-07-25T09:17:17;100783.94;;;21.43;44.39
59411;BME280;45215;32.610;-115.482;2022-07-25T09:19:50;100791.19;;;21.28;49.63
59411;BME280;45215;32.610;-115.482;2022-07-25T09:22:16;100797.00;;;21.69;52.87
59411;BME280;45215;32.610;-115.482;2022-07-25T09:24:43;100788.81;;;21.48;44.62
59411;BME280;45215;32.610;-115.482;2022-07-25T09:27:09;100795.19;;;21.32;50.51
59411;BME280;45215;32.610;-115.482;2022-07-25T09:29:37;100803.72;;;21.73;53.96
59411;BME280;45215;32.610;-115.482;2022-07-25T09:32:13;100789.34;;;21.58;45.65
59411;BME280;45215;32.610;-115.482;2022-07-25T09:34:39;100793.41;;;21.24;48.62
59411;BME280;45215;32.610;-115.482;2022-07-25T09:37:07;100796.06;;;21.62;53.61
59411;BME280;45215;32.610;-115.482;2022-07-25T09:39:43;100791.75;;;21.53;45.90
59411;BME280;45215;32.610;-115.482;2022-07-25T09:44:56;100792.63;;;21.53;53.46
59411;BME280;45215;32.610;-115.482;2022-07-25T09:47:22;100791.31;;;21.64;47.28
59411;BME280;45215;32.610;-115.482;2022-07-25T09:49:48;100785.03;;;21.19;45.77
59411;BME280;45215;32.610;-115.482;2022-07-25T09:52:14;100783.41;;;21.48;53.11
59411;BME280;45215;32.610;-115.482;2022-07-25T09:54:42;100789.19;;;21.74;49.88
59411;BME280;45215;32.610;-115.482;2022-07-25T09:57:07;100781.53;;;21.33;44.57
59411;BME280;45215;32.610;-115.482;2022-07-25T09:59:34;100796.41;;;21.44;51.68
59411;BME280;45215;32.610;-115.482;2022-07-25T10:02:05;100800.44;;;21.78;52.63
59411;BME280;45215;32.610;-115.482;2022-07-25T10:07:18;100803.97;;;21.49;52.16
59411;BME280;45215;32.610;-115.482;2022-07-25T10:09:46;100808.38;;;21.79;52.32
59411;BME280;45215;32.610;-115.482;2022-07-25T10:12:13;100806.00;;;21.47;44.68
59411;BME280;45215;32.610;-115.482;2022-07-25T10:14:39;100805.38;;;21.45;51.14
59411;BME280;45215;32.610;-115.482;2022-07-25T10:17:06;100808.53;;;21.78;53.07
59411;BME280;45215;32.610;-115.482;2022-07-25T10:19:39;100799.59;;;21.48;44.72
59411;BME280;45215;32.610;-115.482;2022-07-25T10:22:08;100800.97;;;21.44;51.84
59411;BME280;45215;32.610;-115.482;2022-07-25T10:24:35;100810.41;;;21.77;53.34
59411;BME280;45215;32.610;-115.482;2022-07-25T10:27:08;100799.03;;;21.52;44.93
59411;BME280;45215;32.610;-115.482;2022-07-25T10:29:36;100801.53;;;21.39;50.97
59411;BME280;45215;32.610;-115.482;2022-07-25T10:32:09;100806.59;;;21.72;53.85
59411;BME280;45215;32.610;-115.482;2022-07-25T10:34:35;100811.69;;;21.52;45.22
59411;BME280;45215;32.610;-115.482;2022-07-25T10:37:11;100810.84;;;21.36;50.56
59411;BME280;45215;32.610;-115.482;2022-07-25T10:39:38;100817.84;;;21.75;53.99
59411;BME280;45215;32.610;-115.482;2022-07-25T10:42:05;100812.34;;;21.54;45.64
59411;BME280;45215;32.610;-115.482;2022-07-25T10:44:44;100816.25;;;21.36;51.04
59411;BME280;45215;32.610;-115.482;2022-07-25T10:47:14;100817.84;;;21.75;54.09
59411;BME280;45215;32.610;-115.482;2022-07-25T10:49:41;100814.22;;;21.53;45.78
59411;BME280;45215;32.610;-115.482;2022-07-25T10:52:16;100818.44;;;21.33;50.89
59411;BME280;45215;32.610;-115.482;2022-07-25T10:54:51;100819.44;;;21.70;53.72
59411;BME280;45215;32.610;-115.482;2022-07-25T10:57:17;100824.72;;;21.48;45.63
59411;BME280;45215;32.610;-115.482;2022-07-25T10:59:43;100818.44;;;21.33;50.80
59411;BME280;45215;32.610;-115.482;2022-07-25T11:02:09;100816.72;;;21.70;54.04
59411;BME280;45215;32.610;-115.482;2022-07-25T11:04:42;100815.69;;;21.56;45.89
59411;BME280;45215;32.610;-115.482;2022-07-25T11:07:12;100819.94;;;21.35;50.20
59411;BME280;45215;32.610;-115.482;2022-07-25T11:09:39;100819.63;;;21.68;54.18
59411;BME280;45215;32.610;-115.482;2022-07-25T11:12:06;100818.03;;;21.59;46.13
59411;BME280;45215;32.610;-115.482;2022-07-25T11:14:33;100821.44;;;21.38;50.56
59411;BME280;45215;32.610;-115.482;2022-07-25T11:17:15;100821.97;;;21.71;54.18
59411;BME280;45215;32.610;-115.482;2022-07-25T11:19:43;100816.09;;;21.68;47.21
59411;BME280;45215;32.610;-115.482;2022-07-25T11:22:17;100823.84;;;21.33;49.88
59411;BME280;45215;32.610;-115.482;2022-07-25T11:24:43;100828.94;;;21.66;54.12
59411;BME280;45215;32.610;-115.482;2022-07-25T11:27:11;100830.72;;;21.73;48.58
59411;BME280;45215;32.610;-115.482;2022-07-25T11:29:37;100822.34;;;21.30;47.43
59411;BME280;45215;32.610;-115.482;2022-07-25T11:32:07;100827.50;;;21.55;53.66
59411;BME280;45215;32.610;-115.482;2022-07-25T11:34:34;100827.06;;;21.81;51.84
59411;BME280;45215;32.610;-115.482;2022-07-25T11:37:02;100833.06;;;21.38;45.26
59411;BME280;45215;32.610;-115.482;2022-07-25T11:39:32;100835.88;;;21.45;53.00
59411;BME280;45215;32.610;-115.482;2022-07-25T11:42:05;100843.66;;;21.78;54.41
59411;BME280;45215;32.610;-115.482;2022-07-25T11:44:33;100843.41;;;21.50;45.55
59411;BME280;45215;32.610;-115.482;2022-07-25T11:46:59;100841.16;;;21.38;52.26
59411;BME280;45215;32.610;-115.482;2022-07-25T11:49:25;100848.97;;;21.71;54.66
59411;BME280;45215;32.610;-115.482;2022-07-25T11:51:51;100851.72;;;21.63;47.16
59411;BME280;45215;32.610;-115.482;2022-07-25T11:54:17;100858.75;;;21.34;50.46
59411;BME280;45215;32.610;-115.482;2022-07-25T11:56:43;100858.44;;;21.67;54.42
59411;BME280;45215;32.610;-115.482;2022-07-25T11:59:11;100863.94;;;21.74;48.19
59411;BME280;45215;32.610;-115.482;2022-07-25T12:01:38;100872.78;;;21.30;48.39
59411;BME280;45215;32.610;-115.482;2022-07-25T12:04:17;100875.75;;;21.58;53.95
59411;BME280;45215;32.610;-115.482;2022-07-25T12:06:44;100877.25;;;21.75;49.74
59411;BME280;45215;32.610;-115.482;2022-07-25T12:09:11;100890.28;;;21.34;47.95
59411;BME280;45215;32.610;-115.482;2022-07-25T12:11:37;100896.34;;;21.59;53.91
59411;BME280;45215;32.610;-115.482;2022-07-25T12:14:03;100893.56;;;21.82;51.94
59411;BME280;45215;32.610;-115.482;2022-07-25T12:16:30;100893.09;;;21.41;46.40
59411;BME280;45215;32.610;-115.482;2022-07-25T12:18:56;100889.97;;;21.52;53.68
59411;BME280;45215;32.610;-115.482;2022-07-25T12:21:21;100895.41;;;21.81;55.03
59411;BME280;45215;32.610;-115.482;2022-07-25T12:23:47;100891.28;;;21.56;46.57
59411;BME280;45215;32.610;-115.482;2022-07-25T12:26:13;100900.72;;;21.37;51.89